sensor_id;sensor_type;location;lat;lon;timestamp;temperature;humidity
68139;DHT22;54940;50.842;4.410;2023-12-04T00:01:25;3.10;99.90
68139;DHT22;54940;50.842;4.410;2023-12-04T00:03:51;3.10;99.90
68139;DHT22;54940;50.842;4.410;2023-12-04T00:06:18;3.10;99.90
68139;DHT22;54940;50.842;4.410;2023-12-04T00:08:46;3.00;99.90
68139;DHT22;54940;50.842;4.410;2023-12-04T00:11:12;3.10;99.90
68139;DHT22;54940;50.842;4.410;2023-12-04T00:13:37;3.10;99.90
68139;DHT22;54940;50.842;4.410;2023-12-04T00:16:06;3.10;99.90
68139;DHT22;54940;50.842;4.410;2023-12-04T00:18:32;3.10;99.90
68139;DHT22;54940;50.842;4.410;2023-12-04T00:20:57;3.10;99.90
68139;DHT22;54940;50.842;4.410;2023-12-04T00:23:23;3.10;99.90
68139;DHT22;54940;50.842;4.410;2023-12-04T00:25:49;3.10;99.90
68139;DHT22;54940;50.842;4.410;2023-12-04T00:28:17;3.10;99.90
68139;DHT22;54940;50.842;4.410;2023-12-04T00:30:45;3.10;99.90
68139;DHT22;54940;50.842;4.410;2023-12-04T00:33:13;3.00;99.90
68139;DHT22;54940;50.842;4.410;2023-12-04T00:35:39;3.00;99.90
68139;DHT22;54940;50.842;4.410;2023-12-04T00:38:04;3.00;99.90
68139;DHT22;54940;50.842;4.410;2023-12-04T00:40:30;3.00;99.90
68139;DHT22;54940;50.842;4.410;2023-12-04T00:42:56;3.00;99.90
68139;DHT22;54940;50.842;4.410;2023-12-04T00:45:21;3.10;99.90
68139;DHT22;54940;50.842;4.410;2023-12-04T00:47:47;3.10;99.90
68139;DHT22;54940;50.842;4.410;2023-12-04T00:50:13;3.10;99.90
68139;DHT22;54940;50.842;4.410;2023-12-04T00:52:38;3.10;99.90
68139;DHT22;54940;50.842;4.410;2023-12-04T00:55:04;3.10;99.90
68139;DHT22;54940;50.842;4.410;2023-12-04T00:57:30;3.00;99.90
68139;DHT22;54940;50.842;4.410;2023-12-04T00:59:55;3.00;99.90
68139;DHT22;54940;50.842;4.410;2023-12-04T01:02:21;3.10;99.90
68139;DHT22;54940;50.842;4.410;2023-12-04T01:04:47;3.00;99.90
68139;DHT22;54940;50.842;4.410;2023-12-04T01:07:12;3.00;99.90
68139;DHT22;54940;50.842;4.410;2023-12-04T01:09:38;3.00;99.90
68139;DHT22;54940;50.842;4.410;2023-12-04T01:12:04;3.00;99.90
68139;DHT22;54940;50.842;4.410;2023-12-04T01:14:30;3.00;99.90
68139;DHT22;54940;50.842;4.410;2023-12-04T01:16:56;3.00;99.90
68139;DHT22;54940;50.842;4.410;2023-12-04T01:19:21;3.00;99.90
68139;DHT22;54940;50.842;4.410;2023-12-04T01:21:47;3.10;99.90
68139;DHT22;54940;50.842;4.410;2023-12-04T01:46:41;3.00;99.90
68139;DHT22;54940;50.842;4.410;2023-12-04T01:49:08;2.90;99.90
68139;DHT22;54940;50.842;4.410;2023-12-04T01:51:34;3.00;99.90
68139;DHT22;54940;50.842;4.410;2023-12-04T01:54:02;3.00;99.90
68139;DHT22;54940;50.842;4.410;2023-12-04T01:56:29;3.00;99.90
68139;DHT22;54940;50.842;4.410;2023-12-04T01:58:55;3.00;99.90
68139;DHT22;54940;50.842;4.410;2023-12-04T02:01:22;3.00;99.90
68139;DHT22;54940;50.842;4.410;2023-12-04T02:03:49;3.00;99.90
68139;DHT22;54940;50.842;4.410;2023-12-04T02:06:17;3.00;99.90
68139;DHT22;54940;50.842;4.410;2023-12-04T02:08:47;3.00;99.90
68139;DHT22;54940;50.842;4.410;2023-12-04T02:11:13;2.90;99.90
68139;DHT22;54940;50.842;4.410;2023-12-04T02:13:39;3.00;99.90
68139;DHT22;54940;50.842;4.410;2023-12-04T02:16:06;2.90;99.90
68139;DHT22;54940;50.842;4.410;2023-12-04T02:18:35;2.90;99.90
68139;DHT22;54940;50.842;4.410;2023-12-04T02:21:01;2.90;99.90
68139;DHT22;54940;50.842;4.410;2023-12-04T02:23:27;3.00;99.90
68139;DHT22;54940;50.842;4.410;2023-12-04T02:26:03;3.00;99.90
68139;DHT22;54940;50.842;4.410;2023-12-04T02:28:33;3.00;99.90
68139;DHT22;54940;50.842;4.410;2023-12-04T02:31:01;3.00;99.90
68139;DHT22;54940;50.842;4.410;2023-12-04T02:33:29;3.00;99.90
68139;DHT22;54940;50.842;4.410;2023-12-04T02:35:57;3.00;99.90
68139;DHT22;54940;50.842;4.410;2023-12-04T02:38:24;3.00;99.90
68139;DHT22;54940;50.842;4.410;2023-12-04T02:40:53;3.10;99.90
68139;DHT22;54940;50.842;4.410;2023-12-04T02:43:19;3.10;99.90
68139;DHT22;54940;50.842;4.410;2023-12-04T02:45:44;3.10;99.90
68139;DHT22;54940;50.842;4.410;2023-12-04T02:48:10;3.10;99.90
68139;DHT22;54940;50.842;4.410;2023-12-04T02:50:36;3.00;99.90
68139;DHT22;54940;50.842;4.410;2023-12-04T02:53:01;3.00;99.90
68139;DHT22;54940;50.842;4.410;2023-12-04T02:55:28;3.00;99.90
68139;DHT22;54940;50.842;4.410;2023-12-04T02:57:54;3.00;99.90
68139;DHT22;54940;50.842;4.410;2023-12-04T03:00:19;3.00;99.90
68139;DHT22;54940;50.842;4.410;2023-12-04T03:02:45;3.00;99.90
68139;DHT22;54940;50.842;4.410;2023-12-04T03:05:11;3.10;99.90
68139;DHT22;54940;50.842;4.410;2023-12-04T03:07:36;3.00;99.90
68139;DHT22;54940;50.842;4.410;2023-12-04T03:10:02;3.00;99.90
68139;DHT22;54940;50.842;4.410;2023-12-04T03:12:28;2.90;99.90
68139;DHT22;54940;50.842;4.410;2023-12-04T03:14:57;3.00;99.90
68139;DHT22;54940;50.842;4.410;2023-12-04T03:17:22;3.00;99.90
68139;DHT22;54940;50.842;4.410;2023-12-04T03:19:48;3.10;99.90
68139;DHT22;54940;50.842;4.410;2023-12-04T03:22:13;3.10;99.90
68139;DHT22;54940;50.842;4.410;2023-12-04T03:24:39;3.10;99.90
68139;DHT22;54940;50.842;4.410;2023-12-04T03:27:05;3.10;99.90
68139;DHT22;54940;50.842;4.410;2023-12-04T03:29:32;3.10;99.90
68139;DHT22;54940;50.842;4.410;2023-12-04T03:31:58;3.10;99.90
68139;DHT22;54940;50.842;4.410;2023-12-04T03:34:24;3.10;99.90
68139;DHT22;54940;50.842;4.410;2023-12-04T03:36:49;3.10;99.90
68139;DHT22;54940;50.842;4.410;2023-12-04T03:39:15;3.10;99.90
68139;DHT22;54940;50.842;4.410;2023-12-04T03:41:41;3.10;99.90
68139;DHT22;54940;50.842;4.410;2023-12-04T03:44:06;3.10;99.90
68139;DHT22;54940;50.842;4.410;2023-12-04T03:46:32;3.10;99.90
68139;DHT22;54940;50.842;4.410;2023-12-04T03:49:00;3.00;99.90
68139;DHT22;54940;50.842;4.410;2023-12-04T03:51:26;3.00;99.90
68139;DHT22;54940;50.842;4.410;2023-12-04T03:53:52;3.00;99.90
68139;DHT22;54940;50.842;4.410;2023-12-04T03:56:17;3.00;99.90
68139;DHT22;54940;50.842;4.410;2023-12-04T03:58:43;3.10;99.90
68139;DHT22;54940;50.842;4.410;2023-12-04T04:01:08;3.10;99.90
68139;DHT22;54940;50.842;4.410;2023-12-04T04:03:34;3.10;99.90
68139;DHT22;54940;50.842;4.410;2023-12-04T04:06:00;3.10;99.90
68139;DHT22;54940;50.842;4.410;2023-12-04T04:08:25;3.10;99.90
68139;DHT22;54940;50.842;4.410;2023-12-04T04:10:51;3.10;99.90
68139;DHT22;54940;50.842;4.410;2023-12-04T04:13:16;3.10;99.90
68139;DHT22;54940;50.842;4.410;2023-12-04T04:15:42;3.10;99.90
68139;DHT22;54940;50.842;4.410;2023-12-04T04:18:08;3.10;99.90
68139;DHT22;54940;50.842;4.410;2023-12-04T04:20:33;3.10;99.90
68139;DHT22;54940;50.842;4.410;2023-12-04T04:22:59;3.10;99.90
68139;DHT22;54940;50.842;4.410;2023-12-04T04:25:25;3.10;99.90
68139;DHT22;54940;50.842;4.410;2023-12-04T04:27:50;3.10;99.90
68139;DHT22;54940;50.842;4.410;2023-12-04T04:30:16;3.10;99.90
68139;DHT22;54940;50.842;4.410;2023-12-04T04:32:42;3.00;99.90
68139;DHT22;54940;50.842;4.410;2023-12-04T04:35:08;3.10;99.90
68139;DHT22;54940;50.842;4.410;2023-12-04T04:37:34;3.10;99.90
68139;DHT22;54940;50.842;4.410;2023-12-04T04:40:01;3.10;99.90
68139;DHT22;54940;50.842;4.410;2023-12-04T04:42:26;3.10;99.90
68139;DHT22;54940;50.842;4.410;2023-12-04T04:44:52;3.10;99.90
68139;DHT22;54940;50.842;4.410;2023-12-04T04:47:18;3.10;99.90
68139;DHT22;54940;50.842;4.410;2023-12-04T04:49:43;3.10;99.90
68139;DHT22;54940;50.842;4.410;2023-12-04T04:52:09;3.10;99.90
68139;DHT22;54940;50.842;4.410;2023-12-04T04:54:35;3.10;99.90
68139;DHT22;54940;50.842;4.410;2023-12-04T04:57:00;3.10;99.90
68139;DHT22;54940;50.842;4.410;2023-12-04T04:59:26;3.10;99.90
68139;DHT22;54940;50.842;4.410;2023-12-04T05:01:56;3.10;99.90
68139;DHT22;54940;50.842;4.410;2023-12-04T05:04:21;3.20;99.90
68139;DHT22;54940;50.842;4.410;2023-12-04T05:06:47;3.20;99.90
68139;DHT22;54940;50.842;4.410;2023-12-04T05:09:12;3.20;99.90
68139;DHT22;54940;50.842;4.410;2023-12-04T05:11:38;3.20;99.90
68139;DHT22;54940;50.842;4.410;2023-12-04T05:14:04;3.20;99.90
68139;DHT22;54940;50.842;4.410;2023-12-04T05:16:30;3.20;99.90
68139;DHT22;54940;50.842;4.410;2023-12-04T05:18:55;3.20;99.90
68139;DHT22;54940;50.842;4.410;2023-12-04T05:21:21;3.20;99.90
68139;DHT22;54940;50.842;4.410;2023-12-04T05:23:49;3.20;99.90
68139;DHT22;54940;50.842;4.410;2023-12-04T05:26:15;3.20;99.90
68139;DHT22;54940;50.842;4.410;2023-12-04T05:28:40;3.20;99.90
68139;DHT22;54940;50.842;4.410;2023-12-04T05:31:06;3.20;99.90
68139;DHT22;54940;50.842;4.410;2023-12-04T05:33:32;3.30;99.90
68139;DHT22;54940;50.842;4.410;2023-12-04T05:35:59;3.30;99.90
68139;DHT22;54940;50.842;4.410;2023-12-04T05:38:25;3.30;99.90
68139;DHT22;54940;50.842;4.410;2023-12-04T05:40:53;3.30;99.90
68139;DHT22;54940;50.842;4.410;2023-12-04T05:43:19;3.20;99.90
68139;DHT22;54940;50.842;4.410;2023-12-04T05:45:45;3.30;99.90
68139;DHT22;54940;50.842;4.410;2023-12-04T05:48:11;3.30;99.90
68139;DHT22;54940;50.842;4.410;2023-12-04T05:50:36;3.30;99.90
68139;DHT22;54940;50.842;4.410;2023-12-04T05:53:02;3.30;99.90
68139;DHT22;54940;50.842;4.410;2023-12-04T05:55:28;3.30;99.90
68139;DHT22;54940;50.842;4.410;2023-12-04T05:57:53;3.40;99.90
68139;DHT22;54940;50.842;4.410;2023-12-04T06:00:19;3.40;99.90
68139;DHT22;54940;50.842;4.410;2023-12-04T06:02:45;3.40;99.90
68139;DHT22;54940;50.842;4.410;2023-12-04T06:05:11;3.40;99.90
68139;DHT22;54940;50.842;4.410;2023-12-04T06:07:37;3.40;99.90
68139;DHT22;54940;50.842;4.410;2023-12-04T06:10:03;3.40;99.90
68139;DHT22;54940;50.842;4.410;2023-12-04T06:12:34;3.30;99.90
68139;DHT22;54940;50.842;4.410;2023-12-04T06:14:59;3.30;99.90
68139;DHT22;54940;50.842;4.410;2023-12-04T06:17:28;3.30;99.90
68139;DHT22;54940;50.842;4.410;2023-12-04T06:19:54;3.40;99.90
68139;DHT22;54940;50.842;4.410;2023-12-04T06:22:20;3.30;99.90
68139;DHT22;54940;50.842;4.410;2023-12-04T06:24:47;3.30;99.90
68139;DHT22;54940;50.842;4.410;2023-12-04T06:27:17;3.40;99.90
68139;DHT22;54940;50.842;4.410;2023-12-04T06:29:45;3.40;99.90
68139;DHT22;54940;50.842;4.410;2023-12-04T06:32:12;3.40;99.90
68139;DHT22;54940;50.842;4.410;2023-12-04T06:34:38;3.40;99.90
68139;DHT22;54940;50.842;4.410;2023-12-04T06:37:11;3.30;99.90
68139;DHT22;54940;50.842;4.410;2023-12-04T06:39:38;3.40;99.90
68139;DHT22;54940;50.842;4.410;2023-12-04T06:42:05;3.40;99.90
68139;DHT22;54940;50.842;4.410;2023-12-04T06:44:31;3.40;99.90
68139;DHT22;54940;50.842;4.410;2023-12-04T06:47:02;3.40;99.90
68139;DHT22;54940;50.842;4.410;2023-12-04T06:49:30;3.40;99.90
68139;DHT22;54940;50.842;4.410;2023-12-04T06:51:56;3.40;99.90
68139;DHT22;54940;50.842;4.410;2023-12-04T06:54:22;3.40;99.90
68139;DHT22;54940;50.842;4.410;2023-12-04T06:56:48;3.40;99.90
68139;DHT22;54940;50.842;4.410;2023-12-04T06:59:13;3.40;99.90
68139;DHT22;54940;50.842;4.410;2023-12-04T07:01:39;3.40;99.90
68139;DHT22;54940;50.842;4.410;2023-12-04T07:04:05;3.40;99.90
68139;DHT22;54940;50.842;4.410;2023-12-04T07:06:39;3.40;99.90
68139;DHT22;54940;50.842;4.410;2023-12-04T07:09:05;3.40;99.90
68139;DHT22;54940;50.842;4.410;2023-12-04T07:11:33;3.50;99.90
68139;DHT22;54940;50.842;4.410;2023-12-04T07:13:59;3.50;99.90
68139;DHT22;54940;50.842;4.410;2023-12-04T07:16:24;3.50;99.90
68139;DHT22;54940;50.842;4.410;2023-12-04T07:18:50;3.50;99.90
68139;DHT22;54940;50.842;4.410;2023-12-04T07:21:16;3.50;99.90
68139;DHT22;54940;50.842;4.410;2023-12-04T07:23:41;3.50;99.90
68139;DHT22;54940;50.842;4.410;2023-12-04T07:26:07;3.50;99.90
68139;DHT22;54940;50.842;4.410;2023-12-04T07:28:35;3.50;99.90
68139;DHT22;54940;50.842;4.410;2023-12-04T07:31:01;3.50;99.90
68139;DHT22;54940;50.842;4.410;2023-12-04T07:33:27;3.50;99.90
68139;DHT22;54940;50.842;4.410;2023-12-04T07:35:53;3.50;99.90
68139;DHT22;54940;50.842;4.410;2023-12-04T07:38:19;3.50;99.90
68139;DHT22;54940;50.842;4.410;2023-12-04T07:40:45;3.50;99.90
68139;DHT22;54940;50.842;4.410;2023-12-04T07:43:13;3.50;99.90
68139;DHT22;54940;50.842;4.410;2023-12-04T07:45:42;3.50;99.90
68139;DHT22;54940;50.842;4.410;2023-12-04T07:48:07;3.60;99.90
68139;DHT22;54940;50.842;4.410;2023-12-04T07:50:33;3.60;99.90
68139;DHT22;54940;50.842;4.410;2023-12-04T07:52:59;3.50;99.90
68139;DHT22;54940;50.842;4.410;2023-12-04T07:55:27;3.50;99.90
68139;DHT22;54940;50.842;4.410;2023-12-04T07:57:53;3.50;99.90
68139;DHT22;54940;50.842;4.410;2023-12-04T08:00:23;3.50;99.90
68139;DHT22;54940;50.842;4.410;2023-12-04T08:02:48;3.50;99.90
68139;DHT22;54940;50.842;4.410;2023-12-04T08:05:14;3.50;99.90
68139;DHT22;54940;50.842;4.410;2023-12-04T08:07:40;3.60;99.90
68139;DHT22;54940;50.842;4.410;2023-12-04T08:10:06;3.60;99.90
68139;DHT22;54940;50.842;4.410;2023-12-04T08:12:32;3.50;99.90
68139;DHT22;54940;50.842;4.410;2023-12-04T08:14:59;3.50;99.90
68139;DHT22;54940;50.842;4.410;2023-12-04T08:17:25;3.50;99.90
68139;DHT22;54940;50.842;4.410;2023-12-04T08:19:51;3.50;99.90
68139;DHT22;54940;50.842;4.410;2023-12-04T08:22:16;3.50;99.90
68139;DHT22;54940;50.842;4.410;2023-12-04T08:24:44;3.50;99.90
68139;DHT22;54940;50.842;4.410;2023-12-04T08:27:10;3.50;99.90
68139;DHT22;54940;50.842;4.410;2023-12-04T08:29:36;3.50;99.90
68139;DHT22;54940;50.842;4.410;2023-12-04T08:32:01;3.60;99.90
68139;DHT22;54940;50.842;4.410;2023-12-04T08:34:29;3.60;99.90
68139;DHT22;54940;50.842;4.410;2023-12-04T08:36:55;3.60;99.90
68139;DHT22;54940;50.842;4.410;2023-12-04T08:39:21;3.60;99.90
68139;DHT22;54940;50.842;4.410;2023-12-04T08:41:47;3.50;99.90
68139;DHT22;54940;50.842;4.410;2023-12-04T08:44:14;3.50;99.90
68139;DHT22;54940;50.842;4.410;2023-12-04T08:46:39;3.60;99.90
68139;DHT22;54940;50.842;4.410;2023-12-04T08:49:05;3.50;99.90
68139;DHT22;54940;50.842;4.410;2023-12-04T08:51:31;3.50;99.90
68139;DHT22;54940;50.842;4.410;2023-12-04T08:53:56;3.50;99.90
68139;DHT22;54940;50.842;4.410;2023-12-04T08:56:22;3.50;99.90
68139;DHT22;54940;50.842;4.410;2023-12-04T08:58:50;3.50;99.90
68139;DHT22;54940;50.842;4.410;2023-12-04T09:01:16;3.60;99.90
68139;DHT22;54940;50.842;4.410;2023-12-04T09:03:44;3.50;99.90
68139;DHT22;54940;50.842;4.410;2023-12-04T09:06:09;3.50;99.90
68139;DHT22;54940;50.842;4.410;2023-12-04T09:08:35;3.50;99.90
68139;DHT22;54940;50.842;4.410;2023-12-04T09:11:01;3.50;99.90
68139;DHT22;54940;50.842;4.410;2023-12-04T09:13:26;3.50;99.90
68139;DHT22;54940;50.842;4.410;2023-12-04T09:15:52;3.50;99.90
68139;DHT22;54940;50.842;4.410;2023-12-04T09:18:18;3.50;99.90
68139;DHT22;54940;50.842;4.410;2023-12-04T09:20:44;3.50;99.90
68139;DHT22;54940;50.842;4.410;2023-12-04T09:23:09;3.50;99.90
68139;DHT22;54940;50.842;4.410;2023-12-04T09:25:35;3.50;99.90
68139;DHT22;54940;50.842;4.410;2023-12-04T09:28:01;3.50;99.90
68139;DHT22;54940;50.842;4.410;2023-12-04T09:30:27;3.50;99.90
68139;DHT22;54940;50.842;4.410;2023-12-04T09:32:54;3.50;99.90
68139;DHT22;54940;50.842;4.410;2023-12-04T09:35:22;3.60;99.90
68139;DHT22;54940;50.842;4.410;2023-12-04T09:37:48;3.60;99.90
68139;DHT22;54940;50.842;4.410;2023-12-04T09:40:16;3.70;99.90
68139;DHT22;54940;50.842;4.410;2023-12-04T09:42:42;3.70;99.90
68139;DHT22;54940;50.842;4.410;2023-12-04T09:45:08;3.70;99.90
68139;DHT22;54940;50.842;4.410;2023-12-04T09:47:34;3.70;99.90
68139;DHT22;54940;50.842;4.410;2023-12-04T09:50:00;3.60;99.90
68139;DHT22;54940;50.842;4.410;2023-12-04T09:52:30;3.60;99.90
68139;DHT22;54940;50.842;4.410;2023-12-04T09:54:59;3.60;99.90
68139;DHT22;54940;50.842;4.410;2023-12-04T09:57:25;3.50;99.90
68139;DHT22;54940;50.842;4.410;2023-12-04T09:59:52;3.50;99.90
68139;DHT22;54940;50.842;4.410;2023-12-04T10:02:19;3.40;99.90
68139;DHT22;54940;50.842;4.410;2023-12-04T10:04:45;3.40;99.90
68139;DHT22;54940;50.842;4.410;2023-12-04T10:07:11;3.40;99.90
68139;DHT22;54940;50.842;4.410;2023-12-04T10:09:41;3.30;99.90
68139;DHT22;54940;50.842;4.410;2023-12-04T10:12:07;3.30;99.90
68139;DHT22;54940;50.842;4.410;2023-12-04T10:14:32;3.30;99.90
68139;DHT22;54940;50.842;4.410;2023-12-04T10:16:58;3.30;99.90
68139;DHT22;54940;50.842;4.410;2023-12-04T10:19:26;3.30;99.90
68139;DHT22;54940;50.842;4.410;2023-12-04T10:21:55;3.40;99.90
68139;DHT22;54940;50.842;4.410;2023-12-04T10:24:31;3.40;99.90
68139;DHT22;54940;50.842;4.410;2023-12-04T10:26:57;3.40;99.90
68139;DHT22;54940;50.842;4.410;2023-12-04T10:29:23;3.40;99.90
68139;DHT22;54940;50.842;4.410;2023-12-04T10:31:50;3.40;99.90
68139;DHT22;54940;50.842;4.410;2023-12-04T10:34:18;3.40;99.90
68139;DHT22;54940;50.842;4.410;2023-12-04T10:36:45;3.50;99.90
68139;DHT22;54940;50.842;4.410;2023-12-04T10:39:11;3.50;99.90
68139;DHT22;54940;50.842;4.410;2023-12-04T10:41:38;3.50;99.90
68139;DHT22;54940;50.842;4.410;2023-12-04T10:44:07;3.60;99.90
68139;DHT22;54940;50.842;4.410;2023-12-04T10:46:35;3.60;99.90
68139;DHT22;54940;50.842;4.410;2023-12-04T10:49:03;3.50;99.90
68139;DHT22;54940;50.842;4.410;2023-12-04T10:51:30;3.50;99.90
68139;DHT22;54940;50.842;4.410;2023-12-04T10:53:56;3.50;99.90
68139;DHT22;54940;50.842;4.410;2023-12-04T10:56:33;3.60;99.90
68139;DHT22;54940;50.842;4.410;2023-12-04T10:59:03;3.50;99.90
68139;DHT22;54940;50.842;4.410;2023-12-04T11:01:31;3.60;99.90
68139;DHT22;54940;50.842;4.410;2023-12-04T11:03:59;3.60;99.90
68139;DHT22;54940;50.842;4.410;2023-12-04T11:06:29;3.70;99.90
68139;DHT22;54940;50.842;4.410;2023-12-04T11:08:56;3.80;99.90
68139;DHT22;54940;50.842;4.410;2023-12-04T11:11:44;3.80;99.90
68139;DHT22;54940;50.842;4.410;2023-12-04T11:14:13;3.90;99.90
68139;DHT22;54940;50.842;4.410;2023-12-04T11:16:47;3.90;99.90
68139;DHT22;54940;50.842;4.410;2023-12-04T11:21:39;4.00;99.90
68139;DHT22;54940;50.842;4.410;2023-12-04T11:24:06;4.10;99.90
68139;DHT22;54940;50.842;4.410;2023-12-04T11:26:33;4.10;99.90
68139;DHT22;54940;50.842;4.410;2023-12-04T11:29:00;4.10;99.90
68139;DHT22;54940;50.842;4.410;2023-12-04T11:31:29;4.00;99.90
68139;DHT22;54940;50.842;4.410;2023-12-04T11:34:01;4.00;99.90
68139;DHT22;54940;50.842;4.410;2023-12-04T11:36:28;4.10;99.90
68139;DHT22;54940;50.842;4.410;2023-12-04T11:38:53;4.00;99.90
68139;DHT22;54940;50.842;4.410;2023-12-04T11:41:21;4.10;99.90
68139;DHT22;54940;50.842;4.410;2023-12-04T11:43:48;4.10;99.90
68139;DHT22;54940;50.842;4.410;2023-12-04T11:46:20;4.10;99.90
68139;DHT22;54940;50.842;4.410;2023-12-04T11:48:48;4.10;99.90
68139;DHT22;54940;50.842;4.410;2023-12-04T11:54:09;4.10;99.90
68139;DHT22;54940;50.842;4.410;2023-12-04T11:56:35;4.10;99.90
68139;DHT22;54940;50.842;4.410;2023-12-04T11:59:07;4.10;99.90
68139;DHT22;54940;50.842;4.410;2023-12-04T12:01:36;4.10;99.90
68139;DHT22;54940;50.842;4.410;2023-12-04T12:04:06;4.10;99.90
68139;DHT22;54940;50.842;4.410;2023-12-04T12:06:32;4.10;99.90
68139;DHT22;54940;50.842;4.410;2023-12-04T12:08:58;4.10;99.90
68139;DHT22;54940;50.842;4.410;2023-12-04T12:11:27;4.10;99.90
68139;DHT22;54940;50.842;4.410;2023-12-04T12:13:53;4.10;99.90
68139;DHT22;54940;50.842;4.410;2023-12-04T12:16:19;4.10;99.90
68139;DHT22;54940;50.842;4.410;2023-12-04T12:18:45;4.10;99.90
68139;DHT22;54940;50.842;4.410;2023-12-04T12:21:11;4.20;99.90
68139;DHT22;54940;50.842;4.410;2023-12-04T12:23:40;4.20;99.90
68139;DHT22;54940;50.842;4.410;2023-12-04T12:26:06;4.20;99.90
68139;DHT22;54940;50.842;4.410;2023-12-04T12:28:35;4.20;99.90
68139;DHT22;54940;50.842;4.410;2023-12-04T12:31:04;4.20;99.90
68139;DHT22;54940;50.842;4.410;2023-12-04T12:33:32;4.30;99.90
68139;DHT22;54940;50.842;4.410;2023-12-04T12:35:59;4.20;99.90
68139;DHT22;54940;50.842;4.410;2023-12-04T12:38:25;4.30;99.90
68139;DHT22;54940;50.842;4.410;2023-12-04T12:40:51;4.30;99.90
68139;DHT22;54940;50.842;4.410;2023-12-04T12:43:16;4.30;99.90
68139;DHT22;54940;50.842;4.410;2023-12-04T12:45:46;4.30;99.90
68139;DHT22;54940;50.842;4.410;2023-12-04T12:48:18;4.30;99.90
68139;DHT22;54940;50.842;4.410;2023-12-04T12:50:44;4.40;99.90
68139;DHT22;54940;50.842;4.410;2023-12-04T12:53:11;4.40;99.90
68139;DHT22;54940;50.842;4.410;2023-12-04T12:55:40;4.50;99.90
68139;DHT22;54940;50.842;4.410;2023-12-04T12:58:06;4.60;99.90
68139;DHT22;54940;50.842;4.410;2023-12-04T13:00:34;4.60;99.90
68139;DHT22;54940;50.842;4.410;2023-12-04T13:03:00;4.60;99.90
68139;DHT22;54940;50.842;4.410;2023-12-04T13:05:26;4.50;99.90
68139;DHT22;54940;50.842;4.410;2023-12-04T13:07:51;4.50;99.90
68139;DHT22;54940;50.842;4.410;2023-12-04T13:10:17;4.50;99.90
68139;DHT22;54940;50.842;4.410;2023-12-04T13:12:43;4.50;99.90
68139;DHT22;54940;50.842;4.410;2023-12-04T13:15:09;4.50;99.90
68139;DHT22;54940;50.842;4.410;2023-12-04T13:17:36;4.40;99.90
68139;DHT22;54940;50.842;4.410;2023-12-04T13:20:01;4.50;99.90
68139;DHT22;54940;50.842;4.410;2023-12-04T13:22:29;4.50;99.90
68139;DHT22;54940;50.842;4.410;2023-12-04T13:24:55;4.50;99.90
68139;DHT22;54940;50.842;4.410;2023-12-04T13:27:21;4.50;99.90
68139;DHT22;54940;50.842;4.410;2023-12-04T13:29:46;4.50;99.90
68139;DHT22;54940;50.842;4.410;2023-12-04T13:32:18;4.50;99.90
68139;DHT22;54940;50.842;4.410;2023-12-04T13:34:43;4.50;99.90
68139;DHT22;54940;50.842;4.410;2023-12-04T13:37:09;4.50;99.90
68139;DHT22;54940;50.842;4.410;2023-12-04T13:39:37;4.50;99.90
68139;DHT22;54940;50.842;4.410;2023-12-04T13:42:17;4.60;99.90
68139;DHT22;54940;50.842;4.410;2023-12-04T13:45:01;4.60;99.90
68139;DHT22;54940;50.842;4.410;2023-12-04T13:47:27;4.60;99.90
68139;DHT22;54940;50.842;4.410;2023-12-04T13:49:53;4.60;99.90
68139;DHT22;54940;50.842;4.410;2023-12-04T13:52:20;4.60;99.90
68139;DHT22;54940;50.842;4.410;2023-12-04T13:54:48;4.60;99.90
68139;DHT22;54940;50.842;4.410;2023-12-04T13:57:15;4.70;99.90
68139;DHT22;54940;50.842;4.410;2023-12-04T13:59:47;4.70;99.90
68139;DHT22;54940;50.842;4.410;2023-12-04T14:02:13;4.70;99.90
68139;DHT22;54940;50.842;4.410;2023-12-04T14:04:40;4.60;99.90
68139;DHT22;54940;50.842;4.410;2023-12-04T14:07:05;4.70;99.90
68139;DHT22;54940;50.842;4.410;2023-12-04T14:09:36;4.60;99.90
68139;DHT22;54940;50.842;4.410;2023-12-04T14:12:02;4.60;99.90
68139;DHT22;54940;50.842;4.410;2023-12-04T14:14:28;4.60;99.90
68139;DHT22;54940;50.842;4.410;2023-12-04T14:16:54;4.60;99.90
68139;DHT22;54940;50.842;4.410;2023-12-04T14:19:20;4.60;99.90
68139;DHT22;54940;50.842;4.410;2023-12-04T14:21:49;4.70;99.90
68139;DHT22;54940;50.842;4.410;2023-12-04T14:24:15;4.70;99.90
68139;DHT22;54940;50.842;4.410;2023-12-04T14:26:40;4.70;99.90
68139;DHT22;54940;50.842;4.410;2023-12-04T14:29:06;4.70;99.90
68139;DHT22;54940;50.842;4.410;2023-12-04T14:31:34;4.70;99.90
68139;DHT22;54940;50.842;4.410;2023-12-04T14:34:00;4.70;99.90
68139;DHT22;54940;50.842;4.410;2023-12-04T14:36:26;4.80;99.90
68139;DHT22;54940;50.842;4.410;2023-12-04T14:38:56;4.80;99.90
68139;DHT22;54940;50.842;4.410;2023-12-04T14:41:22;4.80;99.90
68139;DHT22;54940;50.842;4.410;2023-12-04T14:43:47;4.80;99.90
68139;DHT22;54940;50.842;4.410;2023-12-04T14:46:13;4.80;99.90
68139;DHT22;54940;50.842;4.410;2023-12-04T14:48:42;4.90;99.90
68139;DHT22;54940;50.842;4.410;2023-12-04T14:51:08;4.90;99.90
68139;DHT22;54940;50.842;4.410;2023-12-04T14:53:37;4.90;99.90
68139;DHT22;54940;50.842;4.410;2023-12-04T14:56:13;4.90;99.90
68139;DHT22;54940;50.842;4.410;2023-12-04T14:58:57;5.00;99.90
68139;DHT22;54940;50.842;4.410;2023-12-04T15:01:46;4.90;99.90
68139;DHT22;54940;50.842;4.410;2023-12-04T15:04:33;5.00;99.90
68139;DHT22;54940;50.842;4.410;2023-12-04T15:07:39;5.00;99.90
68139;DHT22;54940;50.842;4.410;2023-12-04T15:10:14;4.90;99.90
68139;DHT22;54940;50.842;4.410;2023-12-04T15:12:59;4.90;99.90
68139;DHT22;54940;50.842;4.410;2023-12-04T15:15:30;4.90;99.90
68139;DHT22;54940;50.842;4.410;2023-12-04T15:18:04;4.90;99.90
68139;DHT22;54940;50.842;4.410;2023-12-04T15:20:49;5.00;99.90
68139;DHT22;54940;50.842;4.410;2023-12-04T15:23:15;5.00;99.90
68139;DHT22;54940;50.842;4.410;2023-12-04T15:25:43;5.00;99.90
68139;DHT22;54940;50.842;4.410;2023-12-04T15:28:09;5.00;99.90
68139;DHT22;54940;50.842;4.410;2023-12-04T15:30:39;5.00;99.90
68139;DHT22;54940;50.842;4.410;2023-12-04T15:33:05;5.10;99.90
68139;DHT22;54940;50.842;4.410;2023-12-04T15:35:31;5.10;99.90
68139;DHT22;54940;50.842;4.410;2023-12-04T15:37:56;5.10;99.90
68139;DHT22;54940;50.842;4.410;2023-12-04T15:40:22;5.10;99.90
68139;DHT22;54940;50.842;4.410;2023-12-04T15:42:48;5.20;99.90
68139;DHT22;54940;50.842;4.410;2023-12-04T15:45:13;5.20;99.90
68139;DHT22;54940;50.842;4.410;2023-12-04T15:47:39;5.10;99.90
68139;DHT22;54940;50.842;4.410;2023-12-04T15:50:05;5.10;99.90
68139;DHT22;54940;50.842;4.410;2023-12-04T15:52:33;5.20;99.90
68139;DHT22;54940;50.842;4.410;2023-12-04T15:54:59;5.20;99.90
68139;DHT22;54940;50.842;4.410;2023-12-04T15:57:27;5.20;99.90
68139;DHT22;54940;50.842;4.410;2023-12-04T15:59:53;5.20;99.90
68139;DHT22;54940;50.842;4.410;2023-12-04T16:02:19;5.30;99.90
68139;DHT22;54940;50.842;4.410;2023-12-04T16:04:45;5.30;99.90
68139;DHT22;54940;50.842;4.410;2023-12-04T16:07:10;5.30;99.90
68139;DHT22;54940;50.842;4.410;2023-12-04T16:09:36;5.30;99.90
68139;DHT22;54940;50.842;4.410;2023-12-04T16:12:02;5.30;99.90